createdAt,value
2016-06-25T00:00:18.668Z,1161.09
2016-06-25T00:01:18.675Z,1161.07
2016-06-25T00:02:18.652Z,1161.05
2016-06-25T00:03:18.664Z,1161.04
2016-06-25T00:04:18.685Z,1161.01
2016-06-25T00:05:18.695Z,1160.98
2016-06-25T00:06:18.674Z,1160.91
2016-06-25T00:07:18.663Z,1160.89
2016-06-25T00:08:18.683Z,1160.83
2016-06-25T00:09:18.708Z,1160.8
2016-06-25T00:10:18.674Z,1160.71
2016-06-25T00:11:18.658Z,1160.69
2016-06-25T00:12:18.677Z,1160.64
2016-06-25T00:13:18.674Z,1160.61
2016-06-25T00:14:18.672Z,1160.59
2016-06-25T00:15:18.666Z,1160.58
2016-06-25T00:16:18.672Z,1160.54
2016-06-25T00:17:18.686Z,1160.52
2016-06-25T00:18:18.685Z,1160.47
2016-06-25T00:19:18.676Z,1160.43
2016-06-25T00:20:18.685Z,1160.32
2016-06-25T00:21:18.760Z,1160.28
2016-06-25T00:22:18.686Z,1160.22
2016-06-25T00:23:18.696Z,1160.1
2016-06-25T00:24:18.685Z,1160.05
2016-06-25T00:25:18.706Z,1159.96
2016-06-25T00:26:18.689Z,1159.97
2016-06-25T00:27:18.688Z,1159.92
2016-06-25T00:28:18.691Z,1159.9
2016-06-25T00:29:18.697Z,1159.81
2016-06-25T00:30:18.698Z,1159.86
2016-06-25T00:31:18.682Z,1159.78
2016-06-25T00:32:18.706Z,1159.72
2016-06-25T00:33:18.692Z,1159.62
2016-06-25T00:34:18.681Z,1159.56
2016-06-25T00:35:18.690Z,1159.48
2016-06-25T00:36:18.712Z,1159.4
2016-06-25T00:37:18.697Z,1159.34
2016-06-25T00:38:18.693Z,1159.35
2016-06-25T00:39:18.731Z,1159.35
2016-06-25T00:40:18.697Z,1159.35
2016-06-25T00:41:18.686Z,1159.38
2016-06-25T00:42:18.705Z,1159.39
2016-06-25T00:43:18.709Z,1159.37
2016-06-25T00:44:18.705Z,1159.34
2016-06-25T00:45:18.696Z,1159.3
2016-06-25T00:46:18.722Z,1159.24
2016-06-25T00:47:18.721Z,1159.15
2016-06-25T00:48:18.718Z,1159.16
2016-06-25T00:49:18.710Z,1159.18
2016-06-25T00:50:18.703Z,1159.27
2016-06-25T00:51:18.709Z,1159.36
2016-06-25T00:52:18.720Z,1159.46
2016-06-25T00:53:18.728Z,1159.51
2016-06-25T00:54:18.732Z,1159.5
2016-06-25T00:55:18.709Z,1159.53
2016-06-25T00:56:18.717Z,1159.49
2016-06-25T00:57:18.719Z,1159.53
2016-06-25T00:58:18.715Z,1159.51
2016-06-25T00:59:18.718Z,1159.42
2016-06-25T01:00:18.733Z,1159.43
2016-06-25T01:01:18.709Z,1159.48
2016-06-25T01:02:18.726Z,1159.48
2016-06-25T01:03:18.743Z,1159.52
2016-06-25T01:04:18.743Z,1159.57
2016-06-25T01:05:18.735Z,1159.61
2016-06-25T01:06:18.723Z,1159.65
2016-06-25T01:07:18.730Z,1159.7
2016-06-25T01:08:18.739Z,1159.7
2016-06-25T01:09:18.736Z,1159.69
2016-06-25T01:10:18.730Z,1159.74
2016-06-25T01:11:18.731Z,1159.73
2016-06-25T01:12:18.723Z,1159.64
2016-06-25T01:13:18.732Z,1159.67
2016-06-25T01:14:18.736Z,1159.72
2016-06-25T01:15:18.743Z,1159.67
2016-06-25T01:16:18.756Z,1159.65
2016-06-25T01:17:18.745Z,1159.64
2016-06-25T01:18:18.736Z,1159.66
2016-06-25T01:19:18.728Z,1159.6
2016-06-25T01:20:18.728Z,1159.6
2016-06-25T01:21:18.730Z,1159.64
2016-06-25T01:22:18.741Z,1159.57
2016-06-25T01:23:18.739Z,1159.63
2016-06-25T01:24:18.741Z,1159.65
2016-06-25T01:25:18.747Z,1159.64
2016-06-25T01:26:18.747Z,1159.69
2016-06-25T01:27:18.756Z,1159.62
2016-06-25T01:28:18.746Z,1159.61
2016-06-25T01:29:18.737Z,1159.6
2016-06-25T01:30:18.755Z,1159.64
2016-06-25T01:31:18.740Z,1159.62
2016-06-25T01:32:18.747Z,1159.65
2016-06-25T01:33:18.735Z,1159.65
2016-06-25T01:34:18.741Z,1159.63
2016-06-25T01:35:18.745Z,1159.56
2016-06-25T01:36:18.758Z,1159.51
2016-06-25T01:37:18.743Z,1159.47
2016-06-25T01:38:18.758Z,1159.47
2016-06-25T01:39:18.773Z,1159.47
2016-06-25T01:40:18.752Z,1159.43
2016-06-25T01:41:18.757Z,1159.39
2016-06-25T01:42:18.779Z,1159.37
2016-06-25T01:43:18.782Z,1159.37
2016-06-25T01:44:18.763Z,1159.4
2016-06-25T01:45:18.755Z,1159.32
2016-06-25T01:46:18.770Z,1159.31
2016-06-25T01:47:18.757Z,1159.35
2016-06-25T01:48:18.758Z,1159.31
2016-06-25T01:49:18.773Z,1159.21
2016-06-25T01:50:18.753Z,1159.18
2016-06-25T01:51:18.777Z,1159.13
2016-06-25T01:52:18.774Z,1159.12
2016-06-25T01:53:18.768Z,1159.11
2016-06-25T01:54:18.760Z,1159.1
2016-06-25T01:55:18.753Z,1159.17
2016-06-25T01:56:18.762Z,1159.15
2016-06-25T01:57:18.777Z,1159.21
2016-06-25T01:58:18.775Z,1159.19
2016-06-25T01:59:18.785Z,1159.25
2016-06-25T02:00:18.772Z,1159.2
2016-06-25T02:01:18.784Z,1159.23
2016-06-25T02:02:18.771Z,1159.18
2016-06-25T02:03:18.773Z,1159.16
2016-06-25T02:04:18.779Z,1159.17
2016-06-25T02:05:18.785Z,1159.19
2016-06-25T02:06:18.782Z,1159.16
2016-06-25T02:07:18.777Z,1159.19
2016-06-25T02:08:18.785Z,1159.21
2016-06-25T02:09:18.801Z,1159.28
2016-06-25T02:10:18.774Z,1159.27
2016-06-25T02:11:18.783Z,1159.27
2016-06-25T02:12:18.790Z,1159.31
2016-06-25T02:13:18.773Z,1159.31
2016-06-25T02:14:18.791Z,1159.33
2016-06-25T02:15:18.776Z,1159.34
2016-06-25T02:16:18.794Z,1159.35
2016-06-25T02:17:18.794Z,1159.34
2016-06-25T02:18:18.786Z,1159.41
2016-06-25T02:19:18.777Z,1159.39
2016-06-25T02:20:18.789Z,1159.37
2016-06-25T02:21:18.799Z,1159.37
2016-06-25T02:22:18.803Z,1159.39
2016-06-25T02:23:18.791Z,1159.33
2016-06-25T02:24:18.801Z,1159.28
2016-06-25T02:25:18.792Z,1159.3
2016-06-25T02:26:18.787Z,1159.25
2016-06-25T02:27:18.795Z,1159.27
2016-06-25T02:28:18.799Z,1159.27
2016-06-25T02:29:18.796Z,1159.33
2016-06-25T02:30:18.801Z,1159.3
2016-06-25T02:31:18.809Z,1159.36
2016-06-25T02:32:18.795Z,1159.38
2016-06-25T02:33:18.794Z,1159.4
2016-06-25T02:34:18.814Z,1159.4
2016-06-25T02:35:18.797Z,1159.43
2016-06-25T02:36:18.815Z,1159.48
2016-06-25T02:37:18.806Z,1159.39
2016-06-25T02:38:18.797Z,1159.44
2016-06-25T02:39:18.805Z,1159.49
2016-06-25T02:40:18.803Z,1159.48
2016-06-25T02:41:18.812Z,1159.5
2016-06-25T02:42:19.041Z,1159.54
2016-06-25T02:43:18.938Z,1159.58
2016-06-25T02:44:18.940Z,1159.59
2016-06-25T02:45:18.836Z,1159.57
2016-06-25T02:46:18.819Z,1159.63
2016-06-25T02:47:18.824Z,1159.61
2016-06-25T02:48:18.818Z,1159.58
2016-06-25T02:49:18.827Z,1159.58
2016-06-25T02:50:18.819Z,1159.58
2016-06-25T02:51:18.821Z,1159.55
2016-06-25T02:52:18.827Z,1159.58
2016-06-25T02:53:18.822Z,1159.56
2016-06-25T02:54:18.819Z,1159.54
2016-06-25T02:55:18.807Z,1159.51
2016-06-25T02:56:18.808Z,1159.41
2016-06-25T02:57:18.822Z,1159.4
2016-06-25T02:58:18.824Z,1159.28
2016-06-25T02:59:18.832Z,1159.22
2016-06-25T03:00:18.820Z,1159.18
2016-06-25T03:01:18.819Z,1159.19
2016-06-25T03:02:18.826Z,1159.22
2016-06-25T03:03:18.818Z,1159.21
2016-06-25T03:04:18.819Z,1159.24
2016-06-25T03:05:18.825Z,1159.29
2016-06-25T03:06:18.834Z,1159.35
2016-06-25T03:07:18.825Z,1159.35
2016-06-25T03:08:18.813Z,1159.32
2016-06-25T03:09:18.824Z,1159.31
2016-06-25T03:10:18.831Z,1159.3
2016-06-25T03:11:18.841Z,1159.25
2016-06-25T03:12:18.835Z,1159.27
2016-06-25T03:13:18.831Z,1159.26
2016-06-25T03:14:18.851Z,1159.21
2016-06-25T03:15:18.857Z,1159.22
2016-06-25T03:16:18.827Z,1159.12
2016-06-25T03:17:18.840Z,1159.13
2016-06-25T03:18:18.830Z,1159.11
2016-06-25T03:19:18.834Z,1159.18
2016-06-25T03:20:18.847Z,1159.17
2016-06-25T03:21:18.906Z,1159.17
2016-06-25T03:22:18.847Z,1159.23
2016-06-25T03:23:18.846Z,1159.21
2016-06-25T03:24:18.838Z,1159.26
2016-06-25T03:25:18.850Z,1159.28
2016-06-25T03:26:18.842Z,1159.27
2016-06-25T03:27:18.841Z,1159.26
2016-06-25T03:28:18.858Z,1159.24
2016-06-25T03:29:18.859Z,1159.19
2016-06-25T03:30:18.870Z,1159.16
2016-06-25T03:31:18.863Z,1159.12
2016-06-25T03:32:18.850Z,1159.08
2016-06-25T03:33:18.853Z,1159.06
2016-06-25T03:34:18.867Z,1159.04
2016-06-25T03:35:18.873Z,1159.08
2016-06-25T03:36:18.844Z,1159.05
2016-06-25T03:37:18.866Z,1159.03
2016-06-25T03:38:18.872Z,1158.98
2016-06-25T03:39:18.852Z,1158.99
2016-06-25T03:40:18.860Z,1158.91
2016-06-25T03:41:18.865Z,1158.89
2016-06-25T03:42:18.875Z,1158.86
2016-06-25T03:43:18.863Z,1158.89
2016-06-25T03:44:18.860Z,1158.87
2016-06-25T03:45:18.854Z,1158.87
2016-06-25T03:46:18.857Z,1158.88
2016-06-25T03:47:18.865Z,1158.86
2016-06-25T03:48:18.869Z,1158.86
2016-06-25T03:49:18.865Z,1158.86
2016-06-25T03:50:18.867Z,1158.82
2016-06-25T03:51:18.883Z,1158.79
2016-06-25T03:52:18.867Z,1158.77
2016-06-25T03:53:18.861Z,1158.71
2016-06-25T03:54:18.874Z,1158.74
2016-06-25T03:55:18.864Z,1158.7
2016-06-25T03:56:18.866Z,1158.7
2016-06-25T03:57:18.876Z,1158.71
2016-06-25T03:58:18.867Z,1158.7
2016-06-25T03:59:18.879Z,1158.75
2016-06-25T04:00:18.885Z,1158.74
2016-06-25T04:01:18.872Z,1158.74
2016-06-25T04:02:18.887Z,1158.73
2016-06-25T04:03:18.886Z,1158.66
2016-06-25T04:04:18.890Z,1158.61
2016-06-25T04:05:18.872Z,1158.56
2016-06-25T04:06:18.883Z,1158.48
2016-06-25T04:07:18.882Z,1158.51
2016-06-25T04:08:18.888Z,1158.52
2016-06-25T04:09:18.884Z,1158.53
2016-06-25T04:10:18.875Z,1158.54
2016-06-25T04:11:18.878Z,1158.5
2016-06-25T04:12:18.884Z,1158.42
2016-06-25T04:13:18.913Z,1158.43
2016-06-25T04:14:18.897Z,1158.33
2016-06-25T04:15:18.887Z,1158.27
2016-06-25T04:16:18.901Z,1158.2
2016-06-25T04:17:18.885Z,1158.15
2016-06-25T04:18:18.890Z,1158.05
2016-06-25T04:19:18.903Z,1157.95
2016-06-25T04:20:18.902Z,1157.87
2016-06-25T04:21:18.887Z,1157.81
2016-06-25T04:22:18.902Z,1157.71
2016-06-25T04:23:18.889Z,1157.61
2016-06-25T04:24:18.903Z,1157.57
2016-06-25T04:25:18.905Z,1157.51
2016-06-25T04:26:18.899Z,1157.47
2016-06-25T04:27:18.903Z,1157.43
2016-06-25T04:28:18.924Z,1157.44
2016-06-25T04:29:18.908Z,1157.36
2016-06-25T04:30:18.951Z,1157.35
2016-06-25T04:31:18.905Z,1157.38
2016-06-25T04:32:18.895Z,1157.33
2016-06-25T04:33:18.904Z,1157.32
2016-06-25T04:34:18.918Z,1157.23
2016-06-25T04:35:18.899Z,1157.14
2016-06-25T04:36:18.905Z,1157.1
2016-06-25T04:37:18.903Z,1157.05
2016-06-25T04:38:18.922Z,1156.97
2016-06-25T04:39:18.915Z,1156.96
2016-06-25T04:40:18.919Z,1156.95
2016-06-25T04:41:18.919Z,1156.88
2016-06-25T04:42:18.931Z,1156.86
2016-06-25T04:43:18.915Z,1156.85
2016-06-25T04:44:18.923Z,1156.78
2016-06-25T04:45:18.946Z,1156.73
2016-06-25T04:46:18.926Z,1156.73
2016-06-25T04:47:18.947Z,1156.71
2016-06-25T04:48:18.926Z,1156.77
2016-06-25T04:49:18.913Z,1156.7
2016-06-25T04:50:18.909Z,1156.71
2016-06-25T04:51:18.946Z,1156.71
2016-06-25T04:52:18.919Z,1156.73
2016-06-25T04:53:18.919Z,1156.69
2016-06-25T04:54:18.916Z,1156.72
2016-06-25T04:55:18.931Z,1156.71
2016-06-25T04:56:18.925Z,1156.86
2016-06-25T04:57:18.934Z,1156.8
2016-06-25T04:58:18.940Z,1156.82
2016-06-25T04:59:18.933Z,1156.79
2016-06-25T05:00:18.941Z,1156.78
2016-06-25T05:01:18.930Z,1156.81
2016-06-25T05:02:18.939Z,1156.82
2016-06-25T05:03:18.931Z,1156.85
2016-06-25T05:04:18.942Z,1156.83
2016-06-25T05:05:18.932Z,1156.84
2016-06-25T05:06:18.930Z,1156.86
2016-06-25T05:07:18.974Z,1156.77
2016-06-25T05:08:18.931Z,1156.68
2016-06-25T05:09:18.953Z,1156.58
2016-06-25T05:10:18.933Z,1156.39
2016-06-25T05:11:18.938Z,1156.3
2016-06-25T05:12:18.984Z,1156.13
2016-06-25T05:13:18.953Z,1156
2016-06-25T05:14:18.941Z,1155.8
2016-06-25T05:15:18.947Z,1155.66
2016-06-25T05:16:18.942Z,1155.5
2016-06-25T05:17:18.955Z,1155.38
2016-06-25T05:18:18.961Z,1155.22
2016-06-25T05:19:18.950Z,1155.21
2016-06-25T05:20:18.945Z,1155.16
2016-06-25T05:21:18.945Z,1155.1
2016-06-25T05:22:18.950Z,1155.08
2016-06-25T05:23:18.951Z,1155.08
2016-06-25T05:24:18.958Z,1154.91
2016-06-25T05:25:18.950Z,1154.84
2016-06-25T05:26:18.957Z,1154.84
2016-06-25T05:27:18.950Z,1154.76
2016-06-25T05:28:18.961Z,1154.69
2016-06-25T05:29:18.949Z,1154.57
2016-06-25T05:30:18.961Z,1154.5
2016-06-25T05:31:18.949Z,1154.37
2016-06-25T05:32:18.971Z,1154.36
2016-06-25T05:33:18.965Z,1154.33
2016-06-25T05:34:18.978Z,1154.46
2016-06-25T05:35:18.971Z,1154.66
2016-06-25T05:36:18.999Z,1154.78
2016-06-25T05:37:18.960Z,1154.77
2016-06-25T05:38:18.963Z,1154.85
2016-06-25T05:39:19.002Z,1154.93
2016-06-25T05:40:18.975Z,1154.98
2016-06-25T05:41:18.968Z,1154.97
2016-06-25T05:42:18.988Z,1155
2016-06-25T05:43:18.963Z,1155.13
2016-06-25T05:44:18.984Z,1155.25
2016-06-25T05:45:18.967Z,1155.3
2016-06-25T05:46:18.967Z,1155.39
2016-06-25T05:47:19.289Z,1155.48
2016-06-25T05:48:19.529Z,1155.56
2016-06-25T05:49:18.985Z,1155.59
2016-06-25T05:50:18.991Z,1155.66
2016-06-25T05:51:18.982Z,1155.61
2016-06-25T05:52:18.981Z,1155.65
2016-06-25T05:53:19.022Z,1155.64
2016-06-25T05:54:18.987Z,1155.58
2016-06-25T05:55:18.967Z,1155.56
2016-06-25T05:56:19.053Z,1155.5
2016-06-25T05:57:18.976Z,1155.56
2016-06-25T05:58:19.004Z,1155.56
2016-06-25T05:59:18.986Z,1155.6
2016-06-25T06:00:18.986Z,1155.64
2016-06-25T06:01:18.995Z,1155.63
2016-06-25T06:02:19.001Z,1155.64
2016-06-25T06:03:19.016Z,1155.73
2016-06-25T06:04:18.991Z,1155.73
2016-06-25T06:05:18.987Z,1155.81
2016-06-25T06:06:19.267Z,1155.88
2016-06-25T06:07:19.029Z,1155.92
2016-06-25T06:08:19.015Z,1155.87
2016-06-25T06:09:19.034Z,1155.9
2016-06-25T06:10:18.997Z,1155.91
2016-06-25T06:11:19.012Z,1155.88
2016-06-25T06:12:18.986Z,1155.82
2016-06-25T06:13:19.001Z,1155.84
2016-06-25T06:14:19.005Z,1155.86
2016-06-25T06:15:18.997Z,1155.85
2016-06-25T06:16:19.002Z,1155.77
2016-06-25T06:17:19.013Z,1155.71
2016-06-25T06:18:19.018Z,1155.69
2016-06-25T06:19:19.009Z,1155.65
2016-06-25T06:20:19.016Z,1155.66
2016-06-25T06:21:19.015Z,1155.64
2016-06-25T06:22:18.998Z,1155.67
2016-06-25T06:23:19.002Z,1155.68
2016-06-25T06:24:18.997Z,1155.69
2016-06-25T06:25:19.012Z,1155.75
2016-06-25T06:26:19.003Z,1155.71
2016-06-25T06:27:19.020Z,1155.67
2016-06-25T06:28:19.010Z,1155.65
2016-06-25T06:29:19.011Z,1155.59
2016-06-25T06:30:19.007Z,1155.54
2016-06-25T06:31:19.017Z,1155.61
2016-06-25T06:32:19.030Z,1155.57
2016-06-25T06:33:19.014Z,1155.59
2016-06-25T06:34:19.015Z,1155.68
2016-06-25T06:35:19.017Z,1155.7
2016-06-25T06:36:19.016Z,1155.76
2016-06-25T06:37:19.026Z,1155.78
2016-06-25T06:38:19.021Z,1155.74
2016-06-25T06:39:19.016Z,1155.78
2016-06-25T06:40:19.033Z,1155.8
2016-06-25T06:41:19.040Z,1155.88
2016-06-25T06:42:19.034Z,1155.89
2016-06-25T06:43:19.025Z,1155.96
2016-06-25T06:44:19.012Z,1156.01
2016-06-25T06:45:19.028Z,1156
2016-06-25T06:46:19.029Z,1156.09
2016-06-25T06:47:19.033Z,1156.16
2016-06-25T06:48:19.029Z,1156.18
2016-06-25T06:49:19.050Z,1156.2
2016-06-25T06:50:19.039Z,1156.19
2016-06-25T06:51:19.050Z,1156.16
2016-06-25T06:52:19.050Z,1156.18
2016-06-25T06:53:19.034Z,1156.06
2016-06-25T06:54:19.043Z,1156.04
2016-06-25T06:55:19.027Z,1155.92
2016-06-25T06:56:19.045Z,1155.85
2016-06-25T06:57:19.042Z,1155.77
2016-06-25T06:58:19.063Z,1155.76
2016-06-25T06:59:19.083Z,1155.8
2016-06-25T07:00:19.054Z,1155.81
2016-06-25T07:01:19.046Z,1155.82
2016-06-25T07:02:19.036Z,1155.81
2016-06-25T07:03:19.041Z,1155.83
2016-06-25T07:04:19.060Z,1155.84
2016-06-25T07:05:19.078Z,1155.8
2016-06-25T07:06:19.082Z,1155.64
2016-06-25T07:07:19.075Z,1155.63
2016-06-25T07:08:19.084Z,1155.61
2016-06-25T07:09:19.108Z,1155.5
2016-06-25T07:10:19.074Z,1155.42
2016-06-25T07:11:19.072Z,1155.29
2016-06-25T07:12:19.065Z,1155.15
2016-06-25T07:13:19.060Z,1155.07
2016-06-25T07:14:19.063Z,1154.98
2016-06-25T07:15:19.069Z,1154.92
2016-06-25T07:16:19.057Z,1154.87
2016-06-25T07:17:19.060Z,1154.86
2016-06-25T07:18:19.068Z,1154.92
2016-06-25T07:19:19.063Z,1155.01
2016-06-25T07:20:19.076Z,1154.97
2016-06-25T07:21:19.062Z,1154.96
2016-06-25T07:22:19.067Z,1154.96
2016-06-25T07:23:19.066Z,1154.96
2016-06-25T07:24:19.075Z,1154.99
2016-06-25T07:25:19.089Z,1155.03
2016-06-25T07:26:19.067Z,1155.04
2016-06-25T07:27:19.083Z,1155.06
2016-06-25T07:28:19.079Z,1155.13
2016-06-25T07:29:19.073Z,1155.24
2016-06-25T07:30:19.786Z,1155.41
2016-06-25T07:31:19.077Z,1155.49
2016-06-25T07:32:19.076Z,1155.43
2016-06-25T07:33:19.062Z,1155.53
2016-06-25T07:34:19.074Z,1155.45
2016-06-25T07:35:19.070Z,1155.5
2016-06-25T07:36:19.105Z,1155.56
2016-06-25T07:37:19.112Z,1155.57
2016-06-25T07:38:19.072Z,1155.64
2016-06-25T07:39:19.066Z,1155.65
2016-06-25T07:40:19.082Z,1155.66
2016-06-25T07:41:19.084Z,1155.71
2016-06-25T07:42:19.191Z,1155.74
2016-06-25T07:43:19.076Z,1155.6
2016-06-25T07:44:19.079Z,1155.5
2016-06-25T07:45:19.083Z,1155.48
2016-06-25T07:46:19.074Z,1155.41
2016-06-25T07:47:19.088Z,1155.17
2016-06-25T07:48:19.087Z,1154.99
2016-06-25T07:49:19.086Z,1154.6
2016-06-25T07:50:19.107Z,1154.22
2016-06-25T07:51:19.081Z,1153.8
2016-06-25T07:52:19.095Z,1153.48
2016-06-25T07:53:19.085Z,1153.04
2016-06-25T07:54:19.111Z,1152.53
2016-06-25T07:55:19.139Z,1152.07
2016-06-25T07:56:19.083Z,1151.81
2016-06-25T07:57:19.109Z,1151.89
2016-06-25T07:58:19.117Z,1152.14
2016-06-25T07:59:19.135Z,1152.36
2016-06-25T08:00:19.105Z,1152.51
2016-06-25T08:01:19.107Z,1152.61
2016-06-25T08:02:19.099Z,1152.8
2016-06-25T08:03:19.112Z,1152.94
2016-06-25T08:04:19.114Z,1153
2016-06-25T08:05:19.108Z,1153.08
2016-06-25T08:06:19.098Z,1153.01
2016-06-25T08:07:19.109Z,1152.96
2016-06-25T08:08:19.108Z,1152.86
2016-06-25T08:09:19.118Z,1152.95
2016-06-25T08:10:19.101Z,1152.98
2016-06-25T08:11:19.109Z,1153.13
2016-06-25T08:12:19.115Z,1153.08
2016-06-25T08:13:19.124Z,1153.04
2016-06-25T08:14:19.112Z,1153.19
2016-06-25T08:15:19.130Z,1153.53
2016-06-25T08:16:19.119Z,1153.98
2016-06-25T08:17:19.119Z,1154.29
2016-06-25T08:18:19.127Z,1154.63
2016-06-25T08:19:19.110Z,1154.92
2016-06-25T08:20:19.115Z,1155.15
2016-06-25T08:21:19.132Z,1155.36
2016-06-25T08:22:19.127Z,1155.69
2016-06-25T08:23:19.127Z,1155.89
2016-06-25T08:24:19.119Z,1156.04
2016-06-25T08:25:19.136Z,1156.17
2016-06-25T08:26:19.129Z,1156.35
2016-06-25T08:27:19.177Z,1156.48
2016-06-25T08:28:19.131Z,1156.47
2016-06-25T08:29:19.121Z,1156.61
2016-06-25T08:30:19.123Z,1156.68
2016-06-25T08:31:19.123Z,1156.73
2016-06-25T08:32:19.142Z,1156.68
2016-06-25T08:33:19.118Z,1156.66
2016-06-25T08:34:19.131Z,1156.62
2016-06-25T08:35:19.126Z,1156.59
2016-06-25T08:36:19.118Z,1156.58
2016-06-25T08:37:19.149Z,1156.64
2016-06-25T08:38:19.151Z,1156.58
2016-06-25T08:39:19.126Z,1156.58
2016-06-25T08:40:19.135Z,1156.57
2016-06-25T08:41:19.138Z,1156.58
2016-06-25T08:42:19.133Z,1156.56
2016-06-25T08:43:19.147Z,1156.63
2016-06-25T08:44:19.136Z,1156.7
2016-06-25T08:45:19.139Z,1156.73
2016-06-25T08:46:19.147Z,1156.74
2016-06-25T08:47:19.143Z,1156.73
2016-06-25T08:48:19.144Z,1156.73
2016-06-25T08:49:19.127Z,1156.73
2016-06-25T08:50:19.131Z,1156.68
2016-06-25T08:51:19.138Z,1156.67
2016-06-25T08:52:19.165Z,1156.65
2016-06-25T08:53:19.139Z,1156.74
2016-06-25T08:54:19.145Z,1156.77
2016-06-25T08:55:19.155Z,1156.76
2016-06-25T08:56:19.146Z,1156.81
2016-06-25T08:57:19.167Z,1156.7
2016-06-25T08:58:19.173Z,1156.66
2016-06-25T08:59:19.144Z,1156.62
2016-06-25T09:00:19.148Z,1156.59
2016-06-25T09:01:19.157Z,1156.51
2016-06-25T09:02:19.144Z,1156.47
2016-06-25T09:03:19.178Z,1156.48
2016-06-25T09:04:19.148Z,1156.44
2016-06-25T09:05:19.151Z,1156.38
2016-06-25T09:06:19.158Z,1156.36
2016-06-25T09:07:19.149Z,1156.29
2016-06-25T09:08:19.171Z,1156.22
2016-06-25T09:09:19.149Z,1156.1
2016-06-25T09:10:19.160Z,1156.07
2016-06-25T09:11:19.158Z,1156.05
2016-06-25T09:12:19.288Z,1156.05
2016-06-25T09:13:19.303Z,1155.99
2016-06-25T09:14:19.156Z,1156.03
2016-06-25T09:15:19.189Z,1156.08
2016-06-25T09:16:19.160Z,1156.16
2016-06-25T09:17:19.150Z,1156.29
2016-06-25T09:18:19.173Z,1156.41
2016-06-25T09:19:19.155Z,1156.51
2016-06-25T09:20:19.160Z,1156.62
2016-06-25T09:21:19.173Z,1156.72
2016-06-25T09:22:19.163Z,1156.81
2016-06-25T09:23:19.185Z,1156.88
2016-06-25T09:24:19.167Z,1156.94
2016-06-25T09:25:19.202Z,1156.96
2016-06-25T09:26:19.190Z,1156.96
2016-06-25T09:27:19.170Z,1157
2016-06-25T09:28:19.174Z,1157
2016-06-25T09:29:19.185Z,1157.02
2016-06-25T09:30:19.201Z,1157.05
2016-06-25T09:31:19.171Z,1157.06
2016-06-25T09:32:19.222Z,1157.09
2016-06-25T09:33:19.173Z,1157.12
2016-06-25T09:34:19.177Z,1157.14
2016-06-25T09:35:19.222Z,1157.12
2016-06-25T09:36:19.173Z,1157.08
2016-06-25T09:37:19.208Z,1157.06
2016-06-25T09:38:19.209Z,1157.01
2016-06-25T09:39:19.197Z,1156.89
2016-06-25T09:40:19.183Z,1156.78
2016-06-25T09:41:19.191Z,1156.61
2016-06-25T09:42:19.188Z,1156.38
2016-06-25T09:43:19.199Z,1156.1
2016-06-25T09:44:19.225Z,1155.82
2016-06-25T09:45:19.658Z,1155.49
2016-06-25T09:46:19.193Z,1155.2
2016-06-25T09:47:19.373Z,1154.83
2016-06-25T09:48:19.201Z,1154.48
2016-06-25T09:49:19.195Z,1154.05
2016-06-25T09:50:19.185Z,1153.79
2016-06-25T09:51:19.187Z,1153.7
2016-06-25T09:52:19.184Z,1153.39
2016-06-25T09:53:19.194Z,1153.01
2016-06-25T09:54:19.202Z,1152.55
2016-06-25T09:55:19.211Z,1151.9
2016-06-25T09:56:19.196Z,1150.97
2016-06-25T09:57:19.185Z,1150.09
2016-06-25T09:58:19.197Z,1149.56
2016-06-25T09:59:19.203Z,1149.13
2016-06-25T10:00:19.206Z,1148.93
2016-06-25T10:01:19.210Z,1148.82
2016-06-25T10:02:19.198Z,1148.83
2016-06-25T10:03:19.209Z,1149.09
2016-06-25T10:04:19.232Z,1149.4
2016-06-25T10:05:19.202Z,1149.67
2016-06-25T10:06:19.211Z,1149.87
2016-06-25T10:07:19.221Z,1150
2016-06-25T10:08:19.215Z,1150.17
2016-06-25T10:09:19.223Z,1150.39
2016-06-25T10:10:19.209Z,1150.71
2016-06-25T10:11:19.222Z,1150.99
2016-06-25T10:12:19.215Z,1151.3
2016-06-25T10:13:19.215Z,1151.67
2016-06-25T10:14:19.222Z,1152.08
2016-06-25T10:15:19.208Z,1152.43
2016-06-25T10:16:19.260Z,1152.53
2016-06-25T10:17:19.238Z,1152.43
2016-06-25T10:18:19.217Z,1152.14
2016-06-25T10:19:19.223Z,1151.66
2016-06-25T10:20:19.243Z,1151.51
2016-06-25T10:21:19.222Z,1151.28
2016-06-25T10:22:19.212Z,1151.32
2016-06-25T10:23:19.246Z,1151.5
2016-06-25T10:24:19.228Z,1151.94
2016-06-25T10:25:19.231Z,1152.16
2016-06-25T10:26:19.247Z,1152.52
2016-06-25T10:27:19.240Z,1152.75
2016-06-25T10:28:19.242Z,1152.92
2016-06-25T10:29:19.387Z,1153.18
2016-06-25T10:30:19.238Z,1153.29
2016-06-25T10:31:19.243Z,1153.49
2016-06-25T10:32:19.234Z,1153.7
2016-06-25T10:33:19.231Z,1153.97
2016-06-25T10:34:19.241Z,1154.22
2016-06-25T10:35:19.269Z,1154.43
2016-06-25T10:36:19.230Z,1154.69
2016-06-25T10:37:19.245Z,1154.89
2016-06-25T10:38:19.239Z,1155.12
2016-06-25T10:39:19.242Z,1155.25
2016-06-25T10:40:19.263Z,1155.5
2016-06-25T10:41:19.280Z,1155.67
2016-06-25T10:42:19.242Z,1155.83
2016-06-25T10:43:19.253Z,1155.93
2016-06-25T10:44:19.268Z,1156.09
2016-06-25T10:45:19.315Z,1156.13
2016-06-25T10:46:19.268Z,1156.22
2016-06-25T10:47:19.269Z,1156.25
2016-06-25T10:48:19.243Z,1156.3
2016-06-25T10:49:19.257Z,1156.31
2016-06-25T10:50:19.250Z,1156.34
2016-06-25T10:51:19.271Z,1156.41
2016-06-25T10:52:19.275Z,1156.41
2016-06-25T10:53:19.259Z,1156.52
2016-06-25T10:54:19.257Z,1156.73
2016-06-25T10:55:19.258Z,1156.87
2016-06-25T10:56:19.263Z,1156.97
2016-06-25T10:57:19.279Z,1157.06
2016-06-25T10:58:19.264Z,1157.2
2016-06-25T10:59:19.252Z,1157.26
2016-06-25T11:00:19.285Z,1157.31
2016-06-25T11:01:19.256Z,1157.34
2016-06-25T11:02:20.337Z,1157.4
2016-06-25T11:03:19.435Z,1157.41
2016-06-25T11:04:19.261Z,1157.45
2016-06-25T11:05:19.268Z,1157.41
2016-06-25T11:06:19.306Z,1157.37
2016-06-25T11:07:19.275Z,1157.44
2016-06-25T11:08:19.262Z,1157.46
2016-06-25T11:09:19.268Z,1157.48
2016-06-25T11:10:19.265Z,1157.52
2016-06-25T11:11:19.263Z,1157.47
2016-06-25T11:13:19.268Z,1157.44
2016-06-25T11:14:19.282Z,1157.42
2016-06-25T11:15:19.264Z,1157.37
2016-06-25T11:16:19.277Z,1157.34
2016-06-25T11:17:19.269Z,1157.26
2016-06-25T11:18:19.288Z,1157.29
2016-06-25T11:19:19.275Z,1157.28
2016-06-25T11:20:19.271Z,1157.25
2016-06-25T11:21:19.277Z,1157.35
2016-06-25T11:22:19.285Z,1157.28
2016-06-25T11:23:19.292Z,1157.25
2016-06-25T11:24:19.304Z,1157.26
2016-06-25T11:25:19.306Z,1157.27
2016-06-25T11:26:19.283Z,1157.32
2016-06-25T11:27:19.304Z,1157.36
2016-06-25T11:28:19.285Z,1157.32
2016-06-25T11:29:19.295Z,1157.37
2016-06-25T11:30:19.300Z,1157.37
2016-06-25T11:31:19.288Z,1157.36
2016-06-25T11:32:19.292Z,1157.32
2016-06-25T11:33:19.290Z,1157.33
2016-06-25T11:34:19.281Z,1157.28
2016-06-25T11:35:19.288Z,1157.25
2016-06-25T11:36:19.288Z,1157.23
2016-06-25T11:37:19.289Z,1157.15
2016-06-25T11:38:19.289Z,1157.1
2016-06-25T11:39:19.312Z,1157.01
2016-06-25T11:40:19.291Z,1156.95
2016-06-25T11:41:19.300Z,1156.97
2016-06-25T11:42:19.302Z,1156.96
2016-06-25T11:43:19.305Z,1156.94
2016-06-25T11:44:19.329Z,1156.95
2016-06-25T11:45:19.302Z,1156.98
2016-06-25T11:46:19.407Z,1156.97
2016-06-25T11:47:19.347Z,1156.92
2016-06-25T11:48:19.431Z,1156.92
2016-06-25T11:49:19.319Z,1157
2016-06-25T11:50:19.317Z,1156.99
2016-06-25T11:51:19.505Z,1156.98
2016-06-25T11:52:19.304Z,1157.05
2016-06-25T11:53:19.318Z,1157.05
2016-06-25T11:54:19.316Z,1157.02
2016-06-25T11:55:19.308Z,1156.97
2016-06-25T11:56:19.319Z,1156.94
2016-06-25T11:57:19.320Z,1156.96
2016-06-25T11:58:19.356Z,1156.95
2016-06-25T11:59:19.322Z,1156.99
2016-06-25T12:00:19.307Z,1156.97
2016-06-25T12:01:19.323Z,1156.97
2016-06-25T12:02:19.483Z,1157.02
2016-06-25T12:03:19.442Z,1156.98
2016-06-25T12:04:19.343Z,1156.93
2016-06-25T12:05:19.359Z,1156.91
2016-06-25T12:06:19.406Z,1156.85
2016-06-25T12:07:19.322Z,1156.86
2016-06-25T12:08:19.331Z,1156.82
2016-06-25T12:09:19.310Z,1156.81